createdAt,value
2022-08-17T00:00:02.232Z,21.8
2022-08-17T00:02:18.728Z,22
2022-08-17T00:04:08.051Z,22.4
2022-08-17T00:06:05.301Z,22.4
2022-08-17T00:08:06.318Z,23
2022-08-17T00:10:10.554Z,22.9
2022-08-17T00:14:12.626Z,23.2
2022-08-17T00:16:13.648Z,21.6
2022-08-17T00:20:15.724Z,22
2022-08-17T00:22:33.716Z,24.1
2022-08-17T00:24:21.001Z,24.2
2022-08-17T00:26:34.711Z,24.8
2022-08-17T00:28:23.091Z,24.9
2022-08-17T00:30:24.131Z,23.4
2022-08-17T00:33:15.195Z,22.3
2022-08-17T00:34:27.947Z,23.1
2022-08-17T00:36:27.251Z,24.4
2022-08-17T00:38:31.473Z,22.8
2022-08-17T00:42:33.585Z,21.5
2022-08-17T00:46:56.806Z,22.7
2022-08-17T00:48:57.858Z,24.9
2022-08-17T00:51:02.097Z,22.9
2022-08-17T00:55:04.175Z,24.3
2022-08-17T00:57:05.248Z,22.4
2022-08-17T00:59:06.281Z,23.4
2022-08-17T01:01:07.358Z,24.4
2022-08-17T01:03:08.350Z,26.3
2022-08-17T01:05:12.609Z,24.6
2022-08-17T01:07:13.643Z,24.6
2022-08-17T01:09:14.691Z,22.9
2022-08-17T01:11:15.721Z,25.5
2022-08-17T01:13:16.780Z,21.8
2022-08-17T01:15:17.820Z,23.6
2022-08-17T01:17:18.871Z,23
2022-08-17T01:19:23.127Z,25.8
2022-08-17T01:21:24.162Z,26.3
2022-08-17T01:23:25.221Z,27.1
2022-08-17T01:25:26.277Z,25.2
2022-08-17T01:27:27.314Z,27.3
2022-08-17T01:29:28.364Z,27.6
2022-08-17T01:31:29.442Z,28.2
2022-08-17T01:33:33.665Z,28.9
2022-08-17T01:38:37.909Z,27.1
2022-08-17T01:42:40.002Z,28
2022-08-17T01:48:46.389Z,29.4
2022-08-17T01:50:47.440Z,28.7
2022-08-17T01:52:48.611Z,31.2
2022-08-17T01:54:49.562Z,30.5
2022-08-17T01:56:50.619Z,29.2
2022-08-17T01:58:51.671Z,27.3
2022-08-17T02:01:01.311Z,32.6
2022-08-17T02:02:57.010Z,29.8
2022-08-17T02:04:58.068Z,30.6
2022-08-17T02:06:59.125Z,29.9
2022-08-17T02:09:03.111Z,30.3
2022-08-17T02:11:02.777Z,29.1
2022-08-17T02:15:08.099Z,31.3
2022-08-17T02:17:09.145Z,32.7
2022-08-17T02:19:10.229Z,30.8
2022-08-17T02:21:11.267Z,33.1
2022-08-17T02:23:12.327Z,30.4
2022-08-17T02:25:13.370Z,28.4
2022-08-17T02:27:14.467Z,30.2
2022-08-17T02:29:18.715Z,30.7
2022-08-17T02:31:19.775Z,31
2022-08-17T02:33:20.853Z,31.3
2022-08-17T02:34:22.960Z,32.7
2022-08-17T02:36:27.300Z,31.3
2022-08-17T02:40:36.116Z,28.7
2022-08-17T02:42:30.421Z,30.6
2022-08-17T02:44:39.431Z,28.6
2022-08-17T02:46:32.562Z,27.7
2022-08-17T02:48:33.608Z,30.4
2022-08-17T02:54:41.499Z,29.8
2022-08-17T03:10:51.685Z,31.5
2022-08-17T03:12:52.755Z,28.1
2022-08-17T03:16:54.882Z,30.7
2022-08-17T03:18:55.925Z,30.8
2022-08-17T03:23:02.781Z,29.5
2022-08-17T03:25:02.319Z,31.9
2022-08-17T03:27:03.347Z,27.7
2022-08-17T03:29:04.426Z,28.7
2022-08-17T03:34:08.674Z,30.5
2022-08-17T03:40:15.120Z,31.1
2022-08-17T03:42:32.071Z,29.4
2022-08-17T03:44:17.197Z,29.1
2022-08-17T03:46:28.917Z,33.7
2022-08-17T03:48:19.294Z,29.4
2022-08-17T03:50:20.358Z,30.8
2022-08-17T03:52:24.607Z,31.3
2022-08-17T03:54:25.673Z,28.4
2022-08-17T03:56:26.706Z,29.8
2022-08-17T03:58:27.800Z,30.8
2022-08-17T04:00:28.846Z,30.3
2022-08-17T04:02:29.932Z,32.1
2022-08-17T04:04:30.975Z,30.7
2022-08-17T04:06:35.232Z,31.7
2022-08-17T04:08:36.289Z,29
2022-08-17T04:10:41.343Z,30.2
2022-08-17T04:12:38.396Z,30.9
2022-08-17T04:14:53.699Z,31.1
2022-08-17T04:16:40.526Z,31.6
2022-08-17T04:18:41.591Z,30.9
2022-08-17T04:20:45.831Z,31.9
2022-08-17T04:22:46.968Z,32.1
2022-08-17T04:24:47.976Z,34
2022-08-17T04:27:15.242Z,33.8
2022-08-17T04:29:16.301Z,31.5
2022-08-17T04:31:17.358Z,32.2
2022-08-17T04:35:22.702Z,31.4
2022-08-17T04:37:23.745Z,32.6
2022-08-17T04:39:24.860Z,33
2022-08-17T04:41:25.890Z,29.5
2022-08-17T04:45:28.017Z,31.4
2022-08-17T04:47:32.271Z,32.1
2022-08-17T04:49:33.340Z,30.6
2022-08-17T05:01:42.973Z,33.2
2022-08-17T05:03:44.026Z,34
2022-08-17T05:05:45.073Z,31.6
2022-08-17T05:07:46.147Z,29.3
2022-08-17T05:09:47.211Z,31.6
2022-08-17T05:11:48.306Z,31.7
2022-08-17T05:13:49.338Z,28.6
2022-08-17T05:15:53.608Z,30.9
2022-08-17T05:17:54.671Z,29.8
2022-08-17T05:19:55.738Z,29.8
2022-08-17T05:20:57.874Z,30.2
2022-08-17T05:22:58.941Z,31.1
2022-08-17T05:24:59.985Z,29.8
2022-08-17T05:27:06.476Z,23.1
2022-08-17T05:29:05.306Z,23.7
2022-08-17T05:31:06.375Z,28.3
2022-08-17T05:39:16.624Z,32
2022-08-17T05:43:15.992Z,26.7
2022-08-17T05:45:17.025Z,24.3
2022-08-17T05:47:18.108Z,27.1
2022-08-17T05:49:19.180Z,25.4
2022-08-17T05:51:20.233Z,26.5
2022-08-17T05:55:22.367Z,37.5
2022-08-17T05:57:26.635Z,37.2
2022-08-17T05:59:27.686Z,36.4
2022-08-17T06:01:28.820Z,38.7
2022-08-17T06:03:29.819Z,38.1
2022-08-17T06:07:31.964Z,42.6
2022-08-17T06:09:33.792Z,41.6
2022-08-17T06:16:41.591Z,44.3
2022-08-17T06:18:42.648Z,43.4
2022-08-17T06:20:43.715Z,41.6
2022-08-17T06:22:44.784Z,44.5
2022-08-17T06:28:51.225Z,41.8
2022-08-17T06:30:58.659Z,39.1
2022-08-17T06:32:53.353Z,38.6
2022-08-17T06:34:54.435Z,38.5
2022-08-17T06:36:55.484Z,37.8
2022-08-17T06:43:06.907Z,41.8
2022-08-17T06:45:02.984Z,35.3
2022-08-17T06:47:04.026Z,36.5
2022-08-17T06:49:05.103Z,36.7
2022-08-17T06:51:06.165Z,34.6
2022-08-17T06:55:18.683Z,32.5
2022-08-17T06:57:12.568Z,32.8
2022-08-17T06:59:13.616Z,32.9
2022-08-17T07:01:14.784Z,30.2
2022-08-17T07:03:15.756Z,31
2022-08-17T07:05:16.817Z,30.3
2022-08-17T07:07:21.061Z,33.4
2022-08-17T07:09:22.105Z,26.7
2022-08-17T07:12:25.441Z,28.2
2022-08-17T07:14:26.342Z,28.6
2022-08-17T07:16:27.391Z,27.1
2022-08-17T07:18:28.454Z,20.1
2022-08-17T07:20:32.700Z,24.3
2022-08-17T07:22:57.362Z,26.2
2022-08-17T07:24:34.782Z,28.2
2022-08-17T07:26:35.816Z,24
2022-08-17T07:28:36.851Z,26.6
2022-08-17T07:32:38.933Z,25.9
2022-08-17T07:34:43.176Z,24.6
2022-08-17T07:36:44.214Z,25.1
2022-08-17T07:38:45.247Z,22.7
2022-08-17T07:50:54.616Z,22
2022-08-17T07:52:55.650Z,23.4
2022-08-17T07:54:56.668Z,25.7
2022-08-17T07:56:57.697Z,21.2
2022-08-17T07:58:58.742Z,20.7
2022-08-17T08:01:01.302Z,22.5
2022-08-17T08:03:05.449Z,22.5
2022-08-17T08:05:08.594Z,21.7
2022-08-17T08:07:07.494Z,20.2
2022-08-17T08:09:25.301Z,-1
2022-08-17T08:11:31.327Z,21.5
2022-08-17T08:13:32.447Z,21.9
2022-08-17T08:15:36.566Z,21.8
2022-08-17T08:17:37.564Z,19.4
2022-08-17T08:19:38.575Z,21.3
2022-08-17T08:21:39.582Z,20.3
2022-08-17T08:23:40.583Z,19.9
2022-08-17T08:29:46.830Z,20.8
2022-08-17T08:31:47.819Z,21.4
2022-08-17T08:33:48.841Z,22
2022-08-17T08:35:49.849Z,21.3
2022-08-17T08:43:57.081Z,25
2022-08-17T08:48:05.096Z,22.8
2022-08-17T08:50:04.001Z,24
2022-08-17T08:52:01.131Z,21.5
2022-08-17T08:54:02.138Z,21.6
2022-08-17T08:56:03.253Z,23.7
2022-08-17T08:58:07.350Z,21.8
2022-08-17T09:00:08.378Z,23.4
2022-08-17T09:02:09.371Z,19.1
2022-08-17T09:03:11.489Z,19.8
2022-08-17T09:05:15.070Z,22.1
2022-08-17T09:07:13.471Z,21.4
2022-08-17T09:09:14.448Z,22.5
2022-08-17T09:11:18.663Z,21
2022-08-17T09:15:20.619Z,22.3
2022-08-17T09:21:23.584Z,20.5
2022-08-17T09:23:24.549Z,23.9
2022-08-17T09:25:28.731Z,19.2
2022-08-17T09:27:29.704Z,21.2
2022-08-17T09:29:30.675Z,19.4
2022-08-17T09:31:33.446Z,21.8
2022-08-17T09:33:32.610Z,18.8
2022-08-17T09:35:37.062Z,18.1
2022-08-17T09:37:34.539Z,19.8
2022-08-17T09:39:38.795Z,21.9
2022-08-17T09:41:39.697Z,20.4
2022-08-17T09:43:40.658Z,20.2
2022-08-17T09:45:41.681Z,17
2022-08-17T09:47:36.795Z,18.4
2022-08-17T09:49:37.728Z,18
2022-08-17T09:51:38.655Z,19.3
2022-08-17T09:53:44.790Z,15.9
2022-08-17T09:57:44.729Z,17.7
2022-08-17T10:00:47.726Z,19.8
2022-08-17T10:02:48.599Z,18.2
2022-08-17T10:04:49.498Z,19.3
2022-08-17T10:06:53.650Z,21
2022-08-17T10:08:54.585Z,20.6
2022-08-17T10:14:57.342Z,15.6
2022-08-17T10:16:58.252Z,19.6
2022-08-17T10:18:59.183Z,16.9
2022-08-17T10:21:03.337Z,19.3
2022-08-17T10:23:04.293Z,18.9
2022-08-17T10:25:22.223Z,20.3
2022-08-17T10:31:33.647Z,21.1
2022-08-17T10:33:09.001Z,19.5
2022-08-17T10:35:13.175Z,24.1
2022-08-17T10:37:14.106Z,22.1
2022-08-17T10:39:15.085Z,26.3
2022-08-17T10:41:16.032Z,22.3
2022-08-17T10:43:16.985Z,24
2022-08-17T10:45:17.935Z,18.2
2022-08-17T10:47:18.902Z,22.2
2022-08-17T10:49:23.078Z,21.6
2022-08-17T10:51:24.042Z,24.1
2022-08-17T10:53:24.991Z,23.3
2022-08-17T10:54:27.106Z,24.8
2022-08-17T10:56:28.086Z,23.4
2022-08-17T10:58:29.054Z,22.5
2022-08-17T11:00:29.990Z,25.7
2022-08-17T11:02:34.189Z,23.3
2022-08-17T11:04:35.125Z,24.1
2022-08-17T11:06:36.097Z,24.4
2022-08-17T11:08:37.082Z,26.1
2022-08-17T11:12:38.973Z,24.9
2022-08-17T11:14:39.935Z,23
2022-08-17T11:22:47.043Z,29
2022-08-17T11:24:47.955Z,26.2
2022-08-17T11:26:48.931Z,27.8
2022-08-17T11:28:52.455Z,27.4
2022-08-17T11:30:54.032Z,29.2
2022-08-17T11:32:55.465Z,27.4
2022-08-17T11:38:57.889Z,28.6
2022-08-17T11:42:59.773Z,26.4
2022-08-17T11:45:03.963Z,29.3
2022-08-17T11:47:04.904Z,27
2022-08-17T11:49:05.894Z,26.4
2022-08-17T11:51:33.627Z,28.2
2022-08-17T11:53:34.593Z,28.2
2022-08-17T11:55:38.214Z,26.7
2022-08-17T11:57:39.732Z,30.3
2022-08-17T11:59:40.685Z,30.6
2022-08-17T12:01:41.677Z,30.2
2022-08-17T12:03:42.601Z,27
2022-08-17T12:05:43.577Z,30.4
2022-08-17T12:07:44.574Z,30.3
2022-08-17T12:09:45.502Z,31.1
2022-08-17T12:11:58.767Z,31.9
2022-08-17T12:13:50.640Z,30.6
2022-08-17T12:15:51.621Z,26.6
2022-08-17T12:17:53.220Z,29.1
2022-08-17T12:19:53.559Z,31.7
2022-08-17T12:21:54.547Z,30.5
2022-08-17T12:23:55.519Z,30.7
2022-08-17T12:25:59.692Z,26.6
2022-08-17T12:28:06.030Z,29.2
2022-08-17T12:30:01.655Z,29.9
2022-08-17T12:32:02.619Z,30.2
2022-08-17T12:34:03.611Z,34.8
2022-08-17T12:36:04.607Z,36.3
2022-08-17T12:38:05.573Z,32.7
2022-08-17T12:40:09.832Z,33.7
2022-08-17T12:42:10.776Z,32.2
2022-08-17T12:44:11.740Z,28.7
2022-08-17T12:45:13.847Z,28.7
2022-08-17T12:47:19.443Z,34.9
2022-08-17T12:57:22.957Z,29
2022-08-17T13:01:25.113Z,29.2
2022-08-17T13:07:31.107Z,33.5
2022-08-17T13:09:35.299Z,30.5
2022-08-17T13:15:35.059Z,31.5
2022-08-17T13:17:36.071Z,29
2022-08-17T13:19:40.571Z,31.6
2022-08-17T13:21:41.260Z,33
2022-08-17T13:23:42.690Z,33.8
2022-08-17T13:25:43.258Z,32
2022-08-17T13:27:44.265Z,31.5
2022-08-17T13:29:45.275Z,29.7
2022-08-17T13:31:52.864Z,32.3
2022-08-17T13:33:47.276Z,33.9
2022-08-17T13:35:51.486Z,33.7
2022-08-17T13:37:52.607Z,36.7
2022-08-17T13:39:53.578Z,34.8
2022-08-17T13:40:55.605Z,42.2
2022-08-17T13:42:56.615Z,31.9
2022-08-17T13:44:57.625Z,33.8
2022-08-17T13:46:58.653Z,29.7
2022-08-17T13:49:04.386Z,36.3
2022-08-17T13:51:05.400Z,36.1
2022-08-17T13:55:07.433Z,35
2022-08-17T13:57:08.428Z,33.3
2022-08-17T13:59:09.448Z,39.6
2022-08-17T14:01:12.768Z,33.8
2022-08-17T14:05:15.716Z,38.3
2022-08-17T14:07:16.775Z,32.7
2022-08-17T14:11:18.801Z,37.7
2022-08-17T14:13:19.811Z,36.6
2022-08-17T14:15:20.848Z,36.5
2022-08-17T14:17:25.078Z,43.3
2022-08-17T14:19:26.120Z,40.8
2022-08-17T14:21:27.133Z,44.2
2022-08-17T14:23:28.143Z,41.8
2022-08-17T14:25:29.196Z,41.9
2022-08-17T14:27:30.186Z,45.8
2022-08-17T14:29:31.217Z,44.7
2022-08-17T14:31:37.411Z,48.5
2022-08-17T14:33:36.454Z,43.3
2022-08-17T14:35:37.485Z,42
2022-08-17T14:36:39.608Z,47.5
2022-08-17T14:38:40.622Z,48.3
2022-08-17T14:42:42.687Z,51.9
2022-08-17T14:44:46.929Z,53.6
2022-08-17T14:46:47.973Z,47.2
2022-08-17T14:48:51.696Z,50.7
2022-08-17T14:50:50.023Z,49.2
2022-08-17T14:52:51.048Z,50.6
2022-08-17T14:54:52.061Z,49.6
2022-08-17T14:57:09.374Z,43.3
2022-08-17T14:58:57.327Z,39.1
2022-08-17T15:00:58.432Z,44.1
2022-08-17T15:02:59.385Z,43.5
2022-08-17T15:05:00.428Z,36.7
2022-08-17T15:07:01.423Z,41.6
2022-08-17T15:09:02.543Z,42.6
2022-08-17T15:13:07.716Z,44.4
2022-08-17T15:15:08.750Z,38.2
2022-08-17T15:17:09.757Z,35.3
2022-08-17T15:19:10.780Z,38.4
2022-08-17T15:21:11.806Z,37.3
2022-08-17T15:23:12.838Z,33.6
2022-08-17T15:25:13.900Z,34.6
2022-08-17T15:27:18.089Z,31.5
2022-08-17T15:29:19.115Z,33.7
2022-08-17T15:35:37.376Z,25.2
2022-08-17T15:37:38.400Z,26.4
2022-08-17T15:39:42.692Z,23.8
2022-08-17T15:41:43.632Z,24.6
2022-08-17T15:43:44.667Z,26.8
2022-08-17T15:45:58.792Z,27.2
2022-08-17T15:47:46.794Z,28.1
2022-08-17T15:49:47.675Z,29.4
2022-08-17T15:51:48.717Z,31.6
2022-08-17T15:53:52.882Z,34.3
2022-08-17T15:55:53.898Z,33.8
2022-08-17T15:57:54.900Z,33.6
2022-08-17T16:03:13.251Z,33.3
2022-08-17T16:04:05.173Z,33.7
2022-08-17T16:05:58.942Z,36.5
2022-08-17T16:08:03.190Z,36.4
2022-08-17T16:10:04.165Z,38.5
2022-08-17T16:12:05.186Z,38.9
2022-08-17T16:14:06.190Z,41
2022-08-17T16:16:07.196Z,40.6
2022-08-17T16:18:08.211Z,41
2022-08-17T16:20:09.221Z,42.6
2022-08-17T16:27:17.584Z,43.1
2022-08-17T16:29:18.622Z,41.2
2022-08-17T16:31:19.637Z,41.9
2022-08-17T16:33:20.654Z,42.8
2022-08-17T16:35:24.905Z,47.5
2022-08-17T16:37:25.899Z,44.7
2022-08-17T16:39:27.152Z,43.9
2022-08-17T16:41:27.961Z,41.5
2022-08-17T16:43:28.963Z,43.8
2022-08-17T16:49:38.071Z,44.3
2022-08-17T16:53:37.339Z,45.1
2022-08-17T16:55:38.352Z,42.2
2022-08-17T16:57:47.428Z,46.7
2022-08-17T16:59:43.605Z,46
2022-08-17T17:01:41.463Z,48.7
2022-08-17T17:07:47.767Z,45.1
2022-08-17T17:09:48.809Z,46.6
2022-08-17T17:11:49.831Z,47.4
2022-08-17T17:13:50.879Z,46.4
2022-08-17T17:15:51.899Z,48.1
2022-08-17T17:19:57.189Z,44.6
2022-08-17T17:21:58.209Z,46.3
2022-08-17T17:23:00.341Z,47.6
2022-08-17T17:25:01.400Z,42.1
2022-08-17T17:27:02.390Z,39.5
2022-08-17T17:29:03.417Z,36.1
2022-08-17T17:31:07.646Z,34.8
2022-08-17T17:33:08.689Z,35.2
2022-08-17T17:35:09.736Z,34.6
2022-08-17T17:45:18.068Z,29.2
2022-08-17T17:47:19.096Z,26
2022-08-17T17:49:20.106Z,27.7
2022-08-17T17:51:54.818Z,26.6
2022-08-17T17:55:23.223Z,30.1
2022-08-17T17:57:24.261Z,28
2022-08-17T17:59:28.474Z,30.3
2022-08-17T18:01:29.567Z,31.4
2022-08-17T18:07:32.615Z,32.4
2022-08-17T18:09:33.957Z,30.9
2022-08-17T18:11:35.171Z,31.5
2022-08-17T18:13:38.937Z,32.1
2022-08-17T18:15:39.957Z,33
2022-08-17T18:17:41.006Z,34.8
2022-08-17T18:18:43.107Z,34.3
2022-08-17T18:20:53.620Z,35
2022-08-17T18:22:45.209Z,36.7
2022-08-17T18:24:46.245Z,34.5
2022-08-17T18:26:50.524Z,34.7
2022-08-17T18:28:51.541Z,35.7
2022-08-17T18:30:52.575Z,36.5
2022-08-17T18:32:53.630Z,35.2
2022-08-17T18:34:54.663Z,32.9
2022-08-17T18:36:55.711Z,37.5
2022-08-17T18:38:56.795Z,31.4
2022-08-17T18:43:02.126Z,34
2022-08-17T18:53:07.408Z,34.6
2022-08-17T18:55:11.604Z,34.9
2022-08-17T18:57:12.594Z,33.2
2022-08-17T18:59:13.656Z,32.8
2022-08-17T19:01:14.738Z,33.6
2022-08-17T19:07:17.935Z,33.8
2022-08-17T19:09:22.216Z,33.4
2022-08-17T19:11:23.238Z,35.6
2022-08-17T19:13:24.780Z,35.9
2022-08-17T19:16:11.674Z,34.4
2022-08-17T19:17:51.277Z,35.1
2022-08-17T19:19:52.201Z,38
2022-08-17T19:21:56.403Z,36.3
2022-08-17T19:23:57.514Z,37.5
2022-08-17T19:25:58.504Z,37.3
2022-08-17T19:28:00.006Z,35.9
2022-08-17T19:32:01.680Z,34.1
2022-08-17T19:34:02.790Z,37.7
2022-08-17T19:38:12.977Z,36.4
2022-08-17T19:40:10.699Z,37.5
2022-08-17T19:46:13.753Z,38.5
2022-08-17T19:50:19.058Z,40.5
2022-08-17T19:52:20.106Z,40.1
2022-08-17T19:54:21.140Z,41.3
2022-08-17T19:56:22.190Z,39.2
2022-08-17T19:58:23.256Z,41
2022-08-17T20:00:24.356Z,42.6
2022-08-17T20:02:25.363Z,38.3
2022-08-17T20:04:32.325Z,43.1
2022-08-17T20:06:30.675Z,40.6
2022-08-17T20:09:34.026Z,38
2022-08-17T20:15:36.976Z,41.9
2022-08-17T20:17:41.229Z,44
2022-08-17T20:25:45.405Z,35.5
2022-08-17T20:27:46.533Z,37.1
2022-08-17T20:29:47.503Z,35.4
2022-08-17T20:31:51.762Z,37.7
2022-08-17T20:33:52.825Z,40.4
2022-08-17T20:35:53.862Z,40.7
2022-08-17T20:37:54.917Z,41
2022-08-17T20:39:56.012Z,40.1
2022-08-17T20:42:02.054Z,39.4
2022-08-17T20:43:58.069Z,37.3
2022-08-17T20:46:02.318Z,39.5
2022-08-17T20:48:37.059Z,39
2022-08-17T20:50:04.417Z,37.4
2022-08-17T20:52:05.468Z,37.5
2022-08-17T20:54:06.568Z,35.2
2022-08-17T20:56:07.576Z,34.7
2022-08-17T20:58:08.628Z,36.9
2022-08-17T21:00:12.886Z,37.9
2022-08-17T21:02:18.464Z,37.2
2022-08-17T21:04:14.942Z,42.4
2022-08-17T21:05:17.081Z,37.8
2022-08-17T21:07:18.153Z,38.1
2022-08-17T21:09:19.187Z,38.5
2022-08-17T21:11:20.239Z,39.5
2022-08-17T21:13:24.487Z,39.1
2022-08-17T21:15:25.569Z,38.6
2022-08-17T21:17:26.629Z,37.1
2022-08-17T21:21:28.751Z,36.2
2022-08-17T21:23:29.791Z,37.5
2022-08-17T21:25:30.832Z,37.3
2022-08-17T21:27:35.110Z,37.7
2022-08-17T21:29:40.493Z,37.9
2022-08-17T21:33:38.271Z,33.9
2022-08-17T21:35:39.344Z,36.2
2022-08-17T21:39:41.494Z,34.2
2022-08-17T21:47:48.930Z,30.6
2022-08-17T21:49:49.996Z,30.1
2022-08-17T21:51:51.079Z,32.3
2022-08-17T21:53:52.154Z,30.8
2022-08-17T21:58:14.616Z,30
2022-08-17T21:59:58.556Z,27.9
2022-08-17T22:03:01.758Z,30.5
2022-08-17T22:05:02.932Z,28.4
2022-08-17T22:07:03.866Z,30.4
2022-08-17T22:09:08.140Z,30.1
2022-08-17T22:11:09.247Z,28.9
2022-08-17T22:13:17.131Z,31.5
2022-08-17T22:15:11.368Z,29.8
2022-08-17T22:17:12.444Z,29.9
2022-08-17T22:19:13.523Z,28.4
2022-08-17T22:23:18.878Z,31
2022-08-17T22:25:19.981Z,31.1
2022-08-17T22:27:21.043Z,31
2022-08-17T22:29:22.121Z,30.7
2022-08-17T22:31:23.175Z,33
2022-08-17T22:35:25.311Z,26.9
2022-08-17T22:37:29.566Z,32.7
2022-08-17T22:39:30.691Z,30.8
2022-08-17T22:45:33.851Z,26.6
2022-08-17T22:51:40.266Z,28
2022-08-17T22:53:41.335Z,26.5
2022-08-17T22:58:10.351Z,27.9
2022-08-17T23:00:11.513Z,25.3
2022-08-17T23:02:12.539Z,25.8
2022-08-17T23:04:16.791Z,24.5
2022-08-17T23:06:17.878Z,23.1
2022-08-17T23:08:18.940Z,20.8
2022-08-17T23:12:21.096Z,22
2022-08-17T23:16:23.245Z,22.5
2022-08-17T23:18:27.483Z,24.8
2022-08-17T23:20:28.562Z,20
2022-08-17T23:22:29.641Z,20.8
2022-08-17T23:24:30.720Z,24.2
2022-08-17T23:26:31.782Z,22.7
2022-08-17T23:28:32.865Z,23.4
2022-08-17T23:30:33.933Z,21.1
2022-08-17T23:32:38.184Z,20.4
2022-08-17T23:34:39.230Z,19.7
2022-08-17T23:36:40.302Z,20.2
2022-08-17T23:38:41.377Z,19.4
2022-08-17T23:40:42.449Z,18.8
2022-08-17T23:42:43.836Z,20.5
2022-08-17T23:44:44.625Z,17.5
2022-08-17T23:48:49.959Z,19.2
